sensor_id;sensor_type;location;lat;lon;timestamp;pressure;altitude;pressure_sealevel;temperature;humidity
63006;BME280;53704;52.532;6.426;2023-03-03T00:02:06;102576.84;;;-0.12;100.00
63006;BME280;53704;52.532;6.426;2023-03-03T00:04:32;102577.25;;;0.02;100.00
63006;BME280;53704;52.532;6.426;2023-03-03T00:06:57;102567.66;;;-0.02;100.00
63006;BME280;53704;52.532;6.426;2023-03-03T00:09:22;102575.06;;;-0.12;100.00
63006;BME280;53704;52.532;6.426;2023-03-03T00:11:53;102567.97;;;-0.11;100.00
63006;BME280;53704;52.532;6.426;2023-03-03T00:14:28;102567.59;;;-0.01;100.00
63006;BME280;53704;52.532;6.426;2023-03-03T00:16:55;102579.50;;;-0.12;100.00
63006;BME280;53704;52.532;6.426;2023-03-03T00:19:21;102580.19;;;-0.07;100.00
63006;BME280;53704;52.532;6.426;2023-03-03T00:21:49;102584.19;;;0.05;100.00
63006;BME280;53704;52.532;6.426;2023-03-03T00:26:49;102570.75;;;0.11;100.00
63006;BME280;53704;52.532;6.426;2023-03-03T00:29:32;102581.66;;;0.02;100.00
63006;BME280;53704;52.532;6.426;2023-03-03T00:34:40;102581.66;;;0.02;100.00
63006;BME280;53704;52.532;6.426;2023-03-03T00:37:32;102581.50;;;0.06;100.00
63006;BME280;53704;52.532;6.426;2023-03-03T00:42:50;102592.78;;;0.13;100.00
63006;BME280;53704;52.532;6.426;2023-03-03T00:45:27;102589.22;;;0.12;100.00
63006;BME280;53704;52.532;6.426;2023-03-03T00:47:53;102586.25;;;-0.04;100.00
63006;BME280;53704;52.532;6.426;2023-03-03T00:50:30;102585.09;;;0.05;100.00
63006;BME280;53704;52.532;6.426;2023-03-03T00:53:14;102580.00;;;-0.01;100.00
63006;BME280;53704;52.532;6.426;2023-03-03T00:55:45;102584.88;;;0.11;100.00
63006;BME280;53704;52.532;6.426;2023-03-03T00:58:11;102589.72;;;-0.02;100.00
63006;BME280;53704;52.532;6.426;2023-03-03T01:00:37;102581.66;;;0.02;100.00
63006;BME280;53704;52.532;6.426;2023-03-03T01:03:06;102581.94;;;-0.06;100.00
63006;BME280;53704;52.532;6.426;2023-03-03T01:05:32;102578.53;;;0.15;100.00
63006;BME280;53704;52.532;6.426;2023-03-03T01:07:58;102581.34;;;0.11;100.00
63006;BME280;53704;52.532;6.426;2023-03-03T01:10:26;102588.09;;;-0.06;100.00
63006;BME280;53704;52.532;6.426;2023-03-03T01:12:52;102591.53;;;-0.04;100.00
63006;BME280;53704;52.532;6.426;2023-03-03T01:15:19;102595.81;;;0.01;100.00
63006;BME280;53704;52.532;6.426;2023-03-03T01:17:44;102584.75;;;-0.11;100.00
63006;BME280;53704;52.532;6.426;2023-03-03T01:20:13;102597.34;;;-0.19;100.00
63006;BME280;53704;52.532;6.426;2023-03-03T01:22:38;102586.75;;;-0.19;100.00
63006;BME280;53704;52.532;6.426;2023-03-03T01:25:04;102592.69;;;-0.11;100.00
63006;BME280;53704;52.532;6.426;2023-03-03T01:27:30;102590.53;;;-0.26;100.00
63006;BME280;53704;52.532;6.426;2023-03-03T01:29:56;102588.75;;;-0.26;100.00
63006;BME280;53704;52.532;6.426;2023-03-03T01:32:23;102590.25;;;-0.17;100.00
63006;BME280;53704;52.532;6.426;2023-03-03T01:34:48;102589.84;;;-0.05;100.00
63006;BME280;53704;52.532;6.426;2023-03-03T01:37:14;102594.03;;;0.01;100.00
63006;BME280;53704;52.532;6.426;2023-03-03T01:39:39;102587.88;;;0.01;100.00
63006;BME280;53704;52.532;6.426;2023-03-03T01:42:04;102586.66;;;-0.16;100.00
63006;BME280;53704;52.532;6.426;2023-03-03T01:44:30;102582.91;;;-0.09;100.00
63006;BME280;53704;52.532;6.426;2023-03-03T01:47:04;102585.59;;;-0.10;100.00
63006;BME280;53704;52.532;6.426;2023-03-03T01:49:43;102583.81;;;-0.10;100.00
63006;BME280;53704;52.532;6.426;2023-03-03T01:52:18;102578.16;;;0.01;100.00
63006;BME280;53704;52.532;6.426;2023-03-03T01:54:50;102572.16;;;-0.04;100.00
63006;BME280;53704;52.532;6.426;2023-03-03T01:57:22;102570.34;;;-0.04;100.00
63006;BME280;53704;52.532;6.426;2023-03-03T01:59:51;102570.16;;;-0.24;100.00
63006;BME280;53704;52.532;6.426;2023-03-03T02:02:18;102572.34;;;-0.37;100.00
63006;BME280;53704;52.532;6.426;2023-03-03T02:04:44;102572.34;;;-0.37;100.00
63006;BME280;53704;52.532;6.426;2023-03-03T02:07:10;102565.47;;;-0.16;100.00
63006;BME280;53704;52.532;6.426;2023-03-03T02:12:41;102564.06;;;-0.26;100.00
63006;BME280;53704;52.532;6.426;2023-03-03T02:15:23;102570.63;;;-0.38;100.00
63006;BME280;53704;52.532;6.426;2023-03-03T02:17:52;102557.81;;;-0.24;100.00
63006;BME280;53704;52.532;6.426;2023-03-03T02:21:22;102562.22;;;-0.24;100.00
63006;BME280;53704;52.532;6.426;2023-03-03T02:28:23;102557.44;;;-0.13;100.00
63006;BME280;53704;52.532;6.426;2023-03-03T02:30:49;102562.13;;;-0.21;100.00
63006;BME280;53704;52.532;6.426;2023-03-03T02:33:18;102554.78;;;-0.13;100.00
63006;BME280;53704;52.532;6.426;2023-03-03T02:35:43;102561.88;;;-0.13;100.00
63006;BME280;53704;52.532;6.426;2023-03-03T02:38:45;102559.38;;;-0.18;100.00
63006;BME280;53704;52.532;6.426;2023-03-03T02:41:35;102553.78;;;-0.09;100.00
63006;BME280;53704;52.532;6.426;2023-03-03T02:44:05;102559.94;;;-0.08;100.00
63006;BME280;53704;52.532;6.426;2023-03-03T02:46:43;102556.31;;;-0.06;100.00
63006;BME280;53704;52.532;6.426;2023-03-03T02:49:11;102555.47;;;-0.06;100.00
63006;BME280;53704;52.532;6.426;2023-03-03T02:51:37;102556.53;;;-0.12;100.00
63006;BME280;53704;52.532;6.426;2023-03-03T02:54:04;102553.41;;;0.02;100.00
63006;BME280;53704;52.532;6.426;2023-03-03T02:56:30;102562.06;;;0.07;100.00
63006;BME280;53704;52.532;6.426;2023-03-03T02:58:55;102557.38;;;-0.11;100.00
63006;BME280;53704;52.532;6.426;2023-03-03T03:01:21;102558.16;;;-0.08;100.00
63006;BME280;53704;52.532;6.426;2023-03-03T03:03:47;102559.22;;;-0.13;100.00
63006;BME280;53704;52.532;6.426;2023-03-03T03:06:13;102559.38;;;-0.18;100.00
63006;BME280;53704;52.532;6.426;2023-03-03T03:08:38;102566.47;;;-0.19;100.00
63006;BME280;53704;52.532;6.426;2023-03-03T03:11:04;102564.41;;;-0.10;100.00
63006;BME280;53704;52.532;6.426;2023-03-03T03:13:33;102560.28;;;-0.19;100.00
63006;BME280;53704;52.532;6.426;2023-03-03T03:15:59;102561.22;;;-0.20;100.00
63006;BME280;53704;52.532;6.426;2023-03-03T03:18:25;102561.16;;;-0.19;100.00
63006;BME280;53704;52.532;6.426;2023-03-03T03:20:51;102564.41;;;-0.10;100.00
63006;BME280;53704;52.532;6.426;2023-03-03T03:23:17;102567.38;;;-0.20;100.00
63006;BME280;53704;52.532;6.426;2023-03-03T03:25:46;102571.09;;;-0.25;100.00
63006;BME280;53704;52.532;6.426;2023-03-03T03:28:16;102564.25;;;-0.06;100.00
63006;BME280;53704;52.532;6.426;2023-03-03T03:30:42;102568.91;;;-0.12;100.00
63006;BME280;53704;52.532;6.426;2023-03-03T03:33:08;102571.50;;;-0.11;100.00
63006;BME280;53704;52.532;6.426;2023-03-03T03:35:35;102568.13;;;-0.16;100.00
63006;BME280;53704;52.532;6.426;2023-03-03T03:38:01;102569.31;;;-0.25;100.00
63006;BME280;53704;52.532;6.426;2023-03-03T03:40:26;102576.22;;;-0.21;100.00
63006;BME280;53704;52.532;6.426;2023-03-03T03:42:53;102572.47;;;-0.13;100.00
63006;BME280;53704;52.532;6.426;2023-03-03T03:45:18;102574.16;;;-0.11;100.00
63006;BME280;53704;52.532;6.426;2023-03-03T03:47:44;102578.75;;;-0.17;100.00
63006;BME280;53704;52.532;6.426;2023-03-03T03:50:10;102573.22;;;-0.10;100.00
63006;BME280;53704;52.532;6.426;2023-03-03T03:52:35;102578.84;;;-0.21;100.00
63006;BME280;53704;52.532;6.426;2023-03-03T03:55:01;102578.75;;;-0.17;100.00
63006;BME280;53704;52.532;6.426;2023-03-03T03:57:26;102586.97;;;-0.25;100.00
63006;BME280;53704;52.532;6.426;2023-03-03T03:59:52;102583.19;;;-0.18;100.00
63006;BME280;53704;52.532;6.426;2023-03-03T04:02:18;102584.94;;;-0.17;100.00
63006;BME280;53704;52.532;6.426;2023-03-03T04:04:44;102578.94;;;-0.22;100.00
63006;BME280;53704;52.532;6.426;2023-03-03T04:07:10;102581.59;;;0.03;100.00
63006;BME280;53704;52.532;6.426;2023-03-03T04:09:35;102582.41;;;-0.20;100.00
63006;BME280;53704;52.532;6.426;2023-03-03T04:12:01;102577.16;;;-0.22;100.00
63006;BME280;53704;52.532;6.426;2023-03-03T04:14:26;102585.13;;;-0.23;100.00
63006;BME280;53704;52.532;6.426;2023-03-03T04:16:51;102575.84;;;-0.10;100.00
63006;BME280;53704;52.532;6.426;2023-03-03T04:19:17;102578.00;;;-0.21;100.00
63006;BME280;53704;52.532;6.426;2023-03-03T04:21:42;102575.91;;;-0.11;100.00
63006;BME280;53704;52.532;6.426;2023-03-03T04:24:08;102580.59;;;-0.20;100.00
63006;BME280;53704;52.532;6.426;2023-03-03T04:26:34;102578.00;;;-0.21;100.00
63006;BME280;53704;52.532;6.426;2023-03-03T04:28:59;102585.03;;;-0.20;100.00
63006;BME280;53704;52.532;6.426;2023-03-03T04:31:26;102573.41;;;-0.16;100.00
63006;BME280;53704;52.532;6.426;2023-03-03T04:33:52;102576.06;;;-0.16;100.00
63006;BME280;53704;52.532;6.426;2023-03-03T04:36:18;102576.00;;;-0.14;100.00
63006;BME280;53704;52.532;6.426;2023-03-03T04:38:44;102574.38;;;0.08;100.00
63006;BME280;53704;52.532;6.426;2023-03-03T04:41:10;102573.06;;;0.20;100.00
63006;BME280;53704;52.532;6.426;2023-03-03T04:43:35;102570.81;;;0.34;100.00
63006;BME280;53704;52.532;6.426;2023-03-03T04:46:01;102571.13;;;0.25;100.00
63006;BME280;53704;52.532;6.426;2023-03-03T04:48:26;102574.53;;;0.04;100.00
63006;BME280;53704;52.532;6.426;2023-03-03T04:50:52;102574.28;;;0.11;100.00
63006;BME280;53704;52.532;6.426;2023-03-03T04:53:17;102562.69;;;0.39;100.00
63006;BME280;53704;52.532;6.426;2023-03-03T04:55:43;102567.66;;;0.48;100.00
63006;BME280;53704;52.532;6.426;2023-03-03T04:58:08;102570.59;;;0.41;100.00
63006;BME280;53704;52.532;6.426;2023-03-03T05:00:35;102569.56;;;0.45;100.00
63006;BME280;53704;52.532;6.426;2023-03-03T05:03:00;102561.84;;;0.39;100.00
63006;BME280;53704;52.532;6.426;2023-03-03T05:05:26;102574.81;;;0.46;100.00
63006;BME280;53704;52.532;6.426;2023-03-03T05:07:51;102570.47;;;0.44;100.00
63006;BME280;53704;52.532;6.426;2023-03-03T05:10:17;102569.63;;;0.43;100.00
63006;BME280;53704;52.532;6.426;2023-03-03T05:12:42;102572.81;;;0.53;100.00
63006;BME280;53704;52.532;6.426;2023-03-03T05:15:09;102571.69;;;0.35;100.00
63006;BME280;53704;52.532;6.426;2023-03-03T05:17:35;102581.41;;;0.34;100.00
63006;BME280;53704;52.532;6.426;2023-03-03T05:20:01;102583.50;;;0.50;100.00
63006;BME280;53704;52.532;6.426;2023-03-03T05:22:26;102577.53;;;0.45;100.00
63006;BME280;53704;52.532;6.426;2023-03-03T05:24:52;102584.25;;;0.53;100.00
63006;BME280;53704;52.532;6.426;2023-03-03T05:27:18;102585.69;;;0.39;100.00
63006;BME280;53704;52.532;6.426;2023-03-03T05:29:44;102589.28;;;0.61;100.00
63006;BME280;53704;52.532;6.426;2023-03-03T05:32:09;102590.28;;;0.33;100.00
63006;BME280;53704;52.532;6.426;2023-03-03T05:34:36;102592.78;;;0.38;100.00
63006;BME280;53704;52.532;6.426;2023-03-03T05:37:01;102587.13;;;0.47;100.00
63006;BME280;53704;52.532;6.426;2023-03-03T05:39:28;102585.63;;;0.65;100.00
63006;BME280;53704;52.532;6.426;2023-03-03T05:41:53;102587.78;;;0.54;100.00
63006;BME280;53704;52.532;6.426;2023-03-03T05:44:20;102587.97;;;0.49;100.00
63006;BME280;53704;52.532;6.426;2023-03-03T05:46:45;102592.97;;;0.57;100.00
63006;BME280;53704;52.532;6.426;2023-03-03T05:49:11;102591.94;;;0.61;100.00
63006;BME280;53704;52.532;6.426;2023-03-03T05:51:36;102592.41;;;0.72;100.00
63006;BME280;53704;52.532;6.426;2023-03-03T05:54:01;102590.16;;;0.62;100.00
63006;BME280;53704;52.532;6.426;2023-03-03T05:56:27;102592.03;;;0.58;100.00
63006;BME280;53704;52.532;6.426;2023-03-03T05:58:52;102591.69;;;0.44;100.00
63006;BME280;53704;52.532;6.426;2023-03-03T06:01:18;102588.91;;;0.47;100.00
63006;BME280;53704;52.532;6.426;2023-03-03T06:03:43;102597.91;;;0.66;100.00
63006;BME280;53704;52.532;6.426;2023-03-03T06:06:08;102595.78;;;1.01;100.00
63006;BME280;53704;52.532;6.426;2023-03-03T06:08:35;102587.78;;;0.54;100.00
63006;BME280;53704;52.532;6.426;2023-03-03T06:11:00;102590.81;;;0.43;100.00
63006;BME280;53704;52.532;6.426;2023-03-03T06:13:26;102587.00;;;0.50;100.00
63006;BME280;53704;52.532;6.426;2023-03-03T06:15:51;102588.53;;;0.32;100.00
63006;BME280;53704;52.532;6.426;2023-03-03T06:18:17;102586.78;;;0.57;100.00
63006;BME280;53704;52.532;6.426;2023-03-03T06:20:42;102593.13;;;0.78;100.00
63006;BME280;53704;52.532;6.426;2023-03-03T06:23:08;102591.03;;;0.62;100.00
63006;BME280;53704;52.532;6.426;2023-03-03T06:25:33;102595.00;;;0.74;100.00
63006;BME280;53704;52.532;6.426;2023-03-03T06:28:00;102586.31;;;0.94;100.00
63006;BME280;53704;52.532;6.426;2023-03-03T06:30:25;102596.56;;;0.80;100.00
63006;BME280;53704;52.532;6.426;2023-03-03T06:32:53;102590.91;;;0.65;100.00
63006;BME280;53704;52.532;6.426;2023-03-03T06:35:18;102584.56;;;0.69;100.00
63006;BME280;53704;52.532;6.426;2023-03-03T06:37:44;102586.47;;;0.66;100.00
63006;BME280;53704;52.532;6.426;2023-03-03T06:40:10;102588.38;;;0.37;100.00
63006;BME280;53704;52.532;6.426;2023-03-03T06:42:35;102600.88;;;0.59;100.00
63006;BME280;53704;52.532;6.426;2023-03-03T06:45:01;102607.84;;;0.36;100.00
63006;BME280;53704;52.532;6.426;2023-03-03T06:47:26;102611.09;;;0.19;100.00
63006;BME280;53704;52.532;6.426;2023-03-03T06:49:52;102605.06;;;0.14;100.00
63006;BME280;53704;52.532;6.426;2023-03-03T06:52:22;102612.81;;;0.20;100.00
63006;BME280;53704;52.532;6.426;2023-03-03T06:54:48;102615.91;;;0.33;100.00
63006;BME280;53704;52.532;6.426;2023-03-03T06:57:19;102613.72;;;0.44;100.00
63006;BME280;53704;52.532;6.426;2023-03-03T06:59:48;102611.28;;;0.40;100.00
63006;BME280;53704;52.532;6.426;2023-03-03T07:02:16;102614.19;;;0.57;100.00
63006;BME280;53704;52.532;6.426;2023-03-03T07:04:43;102619.75;;;0.49;100.00
63006;BME280;53704;52.532;6.426;2023-03-03T07:07:19;102622.78;;;0.39;100.00
63006;BME280;53704;52.532;6.426;2023-03-03T07:09:48;102632.78;;;0.56;100.00
63006;BME280;53704;52.532;6.426;2023-03-03T07:12:25;102627.13;;;0.65;100.00
63006;BME280;53704;52.532;6.426;2023-03-03T07:15:01;102619.13;;;0.66;100.00
63006;BME280;53704;52.532;6.426;2023-03-03T07:17:41;102629.19;;;1.05;100.00
63006;BME280;53704;52.532;6.426;2023-03-03T07:20:18;102621.84;;;1.12;100.00
63006;BME280;53704;52.532;6.426;2023-03-03T07:22:43;102621.63;;;1.18;100.00
63006;BME280;53704;52.532;6.426;2023-03-03T07:25:19;102620.47;;;1.25;100.00
63006;BME280;53704;52.532;6.426;2023-03-03T07:27:45;102627.75;;;1.44;100.00
63006;BME280;53704;52.532;6.426;2023-03-03T07:32:50;102645.09;;;0.82;100.00
63006;BME280;53704;52.532;6.426;2023-03-03T07:35:43;102645.72;;;0.88;100.00
63006;BME280;53704;52.532;6.426;2023-03-03T07:38:34;102659.66;;;0.95;100.00
63006;BME280;53704;52.532;6.426;2023-03-03T07:41:03;102659.72;;;0.94;100.00
63006;BME280;53704;52.532;6.426;2023-03-03T07:46:40;102671.28;;;1.38;100.00
63006;BME280;53704;52.532;6.426;2023-03-03T07:49:35;102663.78;;;1.50;100.00
63006;BME280;53704;52.532;6.426;2023-03-03T07:52:01;102667.19;;;1.75;100.00
63006;BME280;53704;52.532;6.426;2023-03-03T07:54:43;102661.31;;;1.67;100.00
63006;BME280;53704;52.532;6.426;2023-03-03T07:59:37;102668.44;;;1.89;100.00
63006;BME280;53704;52.532;6.426;2023-03-03T08:02:06;102663.31;;;1.84;100.00
63006;BME280;53704;52.532;6.426;2023-03-03T08:04:43;102671.09;;;1.89;100.00
63006;BME280;53704;52.532;6.426;2023-03-03T08:07:18;102675.13;;;1.53;100.00
63006;BME280;53704;52.532;6.426;2023-03-03T08:09:57;102681.47;;;1.73;100.00
63006;BME280;53704;52.532;6.426;2023-03-03T08:12:37;102677.50;;;2.05;100.00
63006;BME280;53704;52.532;6.426;2023-03-03T08:15:24;102691.09;;;1.97;100.00
63006;BME280;53704;52.532;6.426;2023-03-03T08:17:52;102693.44;;;1.83;100.00
63006;BME280;53704;52.532;6.426;2023-03-03T08:20:41;102683.75;;;2.04;100.00
63006;BME280;53704;52.532;6.426;2023-03-03T08:23:07;102690.59;;;2.10;100.00
63006;BME280;53704;52.532;6.426;2023-03-03T08:25:33;102689.88;;;2.06;100.00
63006;BME280;53704;52.532;6.426;2023-03-03T08:27:58;102691.00;;;2.21;100.00
63006;BME280;53704;52.532;6.426;2023-03-03T08:30:23;102681.94;;;2.47;100.00
63006;BME280;53704;52.532;6.426;2023-03-03T08:32:49;102684.28;;;2.34;100.00
63006;BME280;53704;52.532;6.426;2023-03-03T08:35:14;102679.16;;;2.50;100.00
63006;BME280;53704;52.532;6.426;2023-03-03T08:37:40;102678.75;;;2.39;100.00
63006;BME280;53704;52.532;6.426;2023-03-03T08:40:06;102673.63;;;2.34;100.00
63006;BME280;53704;52.532;6.426;2023-03-03T08:42:31;102676.44;;;2.52;100.00
63006;BME280;53704;52.532;6.426;2023-03-03T08:44:57;102683.91;;;2.64;100.00
63006;BME280;53704;52.532;6.426;2023-03-03T08:47:22;102675.28;;;2.78;100.00
63006;BME280;53704;52.532;6.426;2023-03-03T08:49:48;102676.09;;;2.80;100.00
63006;BME280;53704;52.532;6.426;2023-03-03T08:52:13;102667.72;;;2.89;100.00
63006;BME280;53704;52.532;6.426;2023-03-03T08:54:39;102670.16;;;2.94;100.00
63006;BME280;53704;52.532;6.426;2023-03-03T08:57:05;102672.38;;;3.03;100.00
63006;BME280;53704;52.532;6.426;2023-03-03T08:59:30;102676.16;;;2.79;100.00
63006;BME280;53704;52.532;6.426;2023-03-03T09:01:55;102678.91;;;3.17;100.00
63006;BME280;53704;52.532;6.426;2023-03-03T09:04:21;102681.06;;;3.08;100.00
63006;BME280;53704;52.532;6.426;2023-03-03T09:06:47;102680.16;;;3.08;100.00
63006;BME280;53704;52.532;6.426;2023-03-03T09:09:12;102679.75;;;3.17;100.00
63006;BME280;53704;52.532;6.426;2023-03-03T09:11:38;102675.75;;;2.88;100.00
63006;BME280;53704;52.532;6.426;2023-03-03T09:14:14;102674.22;;;2.82;100.00
63006;BME280;53704;52.532;6.426;2023-03-03T09:16:45;102670.13;;;3.15;100.00
63006;BME280;53704;52.532;6.426;2023-03-03T09:19:35;102676.53;;;3.30;100.00
63006;BME280;53704;52.532;6.426;2023-03-03T09:22:16;102674.59;;;3.52;100.00
63006;BME280;53704;52.532;6.426;2023-03-03T09:24:42;102666.81;;;3.48;100.00
63006;BME280;53704;52.532;6.426;2023-03-03T09:27:37;102662.44;;;3.08;100.00
63006;BME280;53704;52.532;6.426;2023-03-03T09:30:33;102667.75;;;3.08;100.00
63006;BME280;53704;52.532;6.426;2023-03-03T09:33:01;102665.53;;;3.37;100.00
63006;BME280;53704;52.532;6.426;2023-03-03T09:35:40;102671.91;;;3.33;100.00
63006;BME280;53704;52.532;6.426;2023-03-03T10:01:23;102667.28;;;3.94;100.00
63006;BME280;53704;52.532;6.426;2023-03-03T10:07:11;102676.78;;;4.69;100.00
63006;BME280;53704;52.532;6.426;2023-03-03T10:25:52;102676.75;;;4.87;100.00
63006;BME280;53704;52.532;6.426;2023-03-03T10:28:36;102666.81;;;4.91;100.00
63006;BME280;53704;52.532;6.426;2023-03-03T10:42:40;102669.13;;;5.46;100.00
63006;BME280;53704;52.532;6.426;2023-03-03T10:50:49;102667.75;;;5.55;100.00
63006;BME280;53704;52.532;6.426;2023-03-03T10:53:34;102665.44;;;5.65;100.00
63006;BME280;53704;52.532;6.426;2023-03-03T10:56:37;102665.66;;;5.28;100.00
63006;BME280;53704;52.532;6.426;2023-03-03T11:01:58;102670.75;;;5.49;100.00
63006;BME280;53704;52.532;6.426;2023-03-03T11:15:27;102682.22;;;5.35;100.00
63006;BME280;53704;52.532;6.426;2023-03-03T11:21:24;102676.09;;;5.49;100.00
63006;BME280;53704;52.532;6.426;2023-03-03T11:27:02;102677.13;;;5.94;100.00
63006;BME280;53704;52.532;6.426;2023-03-03T11:35:28;102671.47;;;5.68;100.00
63006;BME280;53704;52.532;6.426;2023-03-03T11:40:25;102654.88;;;6.40;100.00
63006;BME280;53704;52.532;6.426;2023-03-03T11:43:09;102653.78;;;6.58;100.00
63006;BME280;53704;52.532;6.426;2023-03-03T11:45:50;102652.50;;;6.49;100.00
63006;BME280;53704;52.532;6.426;2023-03-03T11:54:20;102653.69;;;5.99;100.00
63006;BME280;53704;52.532;6.426;2023-03-03T11:56:48;102657.75;;;5.74;100.00
63006;BME280;53704;52.532;6.426;2023-03-03T11:59:41;102660.25;;;5.77;100.00
63006;BME280;53704;52.532;6.426;2023-03-03T12:02:20;102654.94;;;6.24;100.00
63006;BME280;53704;52.532;6.426;2023-03-03T12:04:54;102657.34;;;5.98;100.00
63006;BME280;53704;52.532;6.426;2023-03-03T12:12:47;102645.53;;;6.16;100.00
63006;BME280;53704;52.532;6.426;2023-03-03T12:16:21;102653.16;;;6.08;100.00
63006;BME280;53704;52.532;6.426;2023-03-03T12:27:06;102638.84;;;6.40;100.00
63006;BME280;53704;52.532;6.426;2023-03-03T12:29:52;102638.16;;;5.90;100.00
63006;BME280;53704;52.532;6.426;2023-03-03T12:35:10;102635.94;;;6.28;100.00
63006;BME280;53704;52.532;6.426;2023-03-03T12:40:33;102634.53;;;6.37;100.00
63006;BME280;53704;52.532;6.426;2023-03-03T12:43:14;102627.59;;;6.49;100.00
63006;BME280;53704;52.532;6.426;2023-03-03T12:48:37;102616.34;;;6.87;100.00
63006;BME280;53704;52.532;6.426;2023-03-03T12:56:34;102614.38;;;7.32;100.00
63006;BME280;53704;52.532;6.426;2023-03-03T12:59:19;102612.31;;;7.50;100.00
63006;BME280;53704;52.532;6.426;2023-03-03T13:04:39;102602.63;;;7.20;100.00
63006;BME280;53704;52.532;6.426;2023-03-03T13:22:54;102595.47;;;7.06;100.00
63006;BME280;53704;52.532;6.426;2023-03-03T13:28:17;102588.59;;;7.02;100.00
63006;BME280;53704;52.532;6.426;2023-03-03T13:30:49;102592.09;;;7.17;100.00
63006;BME280;53704;52.532;6.426;2023-03-03T13:35:57;102589.34;;;7.04;100.00
63006;BME280;53704;52.532;6.426;2023-03-03T13:38:41;102592.97;;;7.03;100.00
63006;BME280;53704;52.532;6.426;2023-03-03T13:41:22;102586.09;;;7.14;100.00
63006;BME280;53704;52.532;6.426;2023-03-03T13:44:03;102581.84;;;7.24;100.00
63006;BME280;53704;52.532;6.426;2023-03-03T13:46:39;102581.13;;;7.07;100.00
63006;BME280;53704;52.532;6.426;2023-03-03T13:49:23;102580.47;;;7.04;100.00
63006;BME280;53704;52.532;6.426;2023-03-03T13:52:01;102583.53;;;7.67;100.00
63006;BME280;53704;52.532;6.426;2023-03-03T13:55:04;102576.63;;;7.50;100.00
63006;BME280;53704;52.532;6.426;2023-03-03T14:01:12;102575.84;;;7.48;100.00
63006;BME280;53704;52.532;6.426;2023-03-03T14:05:51;102565.91;;;7.08;100.00
63006;BME280;53704;52.532;6.426;2023-03-03T14:22:21;102547.88;;;6.68;100.00
63006;BME280;53704;52.532;6.426;2023-03-03T14:25:05;102545.22;;;7.24;100.00
63006;BME280;53704;52.532;6.426;2023-03-03T14:27:59;102536.34;;;7.51;100.00
63006;BME280;53704;52.532;6.426;2023-03-03T14:30:33;102528.97;;;8.21;100.00
63006;BME280;53704;52.532;6.426;2023-03-03T14:33:21;102535.38;;;8.05;100.00
63006;BME280;53704;52.532;6.426;2023-03-03T14:38:34;102533.63;;;7.24;100.00
63006;BME280;53704;52.532;6.426;2023-03-03T14:41:20;102532.94;;;7.35;100.00
63006;BME280;53704;52.532;6.426;2023-03-03T14:44:22;102529.34;;;7.21;100.00
63006;BME280;53704;52.532;6.426;2023-03-03T14:47:21;102533.97;;;7.47;100.00
63006;BME280;53704;52.532;6.426;2023-03-03T14:49:49;102528.75;;;7.31;100.00
63006;BME280;53704;52.532;6.426;2023-03-03T14:54:43;102527.63;;;7.20;100.00
63006;BME280;53704;52.532;6.426;2023-03-03T15:10:43;102513.13;;;6.96;100.00
63006;BME280;53704;52.532;6.426;2023-03-03T15:16:08;102516.91;;;6.79;100.00
63006;BME280;53704;52.532;6.426;2023-03-03T15:21:20;102513.75;;;6.58;100.00
63006;BME280;53704;52.532;6.426;2023-03-03T15:24:15;102513.75;;;6.58;100.00
63006;BME280;53704;52.532;6.426;2023-03-03T15:26:48;102507.47;;;6.59;100.00
63006;BME280;53704;52.532;6.426;2023-03-03T15:29:44;102506.50;;;6.74;100.00
63006;BME280;53704;52.532;6.426;2023-03-03T15:32:28;102501.53;;;6.68;100.00
63006;BME280;53704;52.532;6.426;2023-03-03T15:35:13;102496.38;;;6.50;100.00
63006;BME280;53704;52.532;6.426;2023-03-03T15:37:59;102494.84;;;6.61;100.00
63006;BME280;53704;52.532;6.426;2023-03-03T15:40:34;102493.72;;;6.50;100.00
63006;BME280;53704;52.532;6.426;2023-03-03T15:43:27;102492.75;;;6.23;100.00
63006;BME280;53704;52.532;6.426;2023-03-03T15:49:32;102491.97;;;6.49;100.00
63006;BME280;53704;52.532;6.426;2023-03-03T15:51:56;102485.00;;;6.61;100.00
63006;BME280;53704;52.532;6.426;2023-03-03T15:54:35;102488.72;;;6.59;100.00
63006;BME280;53704;52.532;6.426;2023-03-03T15:57:37;102496.84;;;6.43;100.00
63006;BME280;53704;52.532;6.426;2023-03-03T16:00:09;102493.34;;;6.42;100.00
63006;BME280;53704;52.532;6.426;2023-03-03T16:02:48;102497.31;;;6.49;100.00
63006;BME280;53704;52.532;6.426;2023-03-03T16:05:34;102492.44;;;6.27;100.00
63006;BME280;53704;52.532;6.426;2023-03-03T16:08:16;102494.00;;;6.31;100.00
63006;BME280;53704;52.532;6.426;2023-03-03T16:11:03;102495.03;;;6.29;100.00
63006;BME280;53704;52.532;6.426;2023-03-03T16:32:43;102490.31;;;6.04;100.00
63006;BME280;53704;52.532;6.426;2023-03-03T16:38:01;102486.16;;;6.00;100.00
63006;BME280;53704;52.532;6.426;2023-03-03T16:40:44;102500.00;;;5.76;100.00
63006;BME280;53704;52.532;6.426;2023-03-03T16:44:25;102492.56;;;5.81;100.00
63006;BME280;53704;52.532;6.426;2023-03-03T16:46:37;102495.88;;;5.70;100.00
63006;BME280;53704;52.532;6.426;2023-03-03T16:49:29;102498.63;;;5.69;100.00
63006;BME280;53704;52.532;6.426;2023-03-03T16:54:50;102502.66;;;5.46;100.00
63006;BME280;53704;52.532;6.426;2023-03-03T16:57:29;102506.47;;;5.41;100.00
63006;BME280;53704;52.532;6.426;2023-03-03T17:00:18;102503.47;;;5.62;100.00
63006;BME280;53704;52.532;6.426;2023-03-03T17:02:52;102509.84;;;5.59;100.00
63006;BME280;53704;52.532;6.426;2023-03-03T17:08:20;102520.06;;;5.37;100.00
63006;BME280;53704;52.532;6.426;2023-03-03T17:11:12;102516.81;;;5.32;100.00
63006;BME280;53704;52.532;6.426;2023-03-03T17:30:25;102531.63;;;5.05;100.00
63006;BME280;53704;52.532;6.426;2023-03-03T17:33:08;102529.56;;;5.11;100.00
63006;BME280;53704;52.532;6.426;2023-03-03T17:46:47;102553.50;;;4.96;100.00